weather.gov     
National Weather Service

Terminal Aerodrome Forecast
NWS Homepage
This page is being discontinued on March 12, 2014.
The same data is available at this site. Please update your bookmarks.
Thank you, and we apologize for the inconvenience.
Please send an email to SR-SRH.Webmaster@noaa.gov with any concerns.


Current Version
Previous Version:    01  02  03  04  05  06  07  08  09  10  11  12  13  14  15  16  17  18  19  20  21  22  23  24  25  26  27  28  29  
[Printable]
975
FTUS46 KSEW 230500
TAFPAE
TAF
KPAE 230520Z 2306/2406 17010KT P6SM -SHRA SCT022 OVC040
      TEMPO 2306/2310 5SM -SHRA BR BKN022 OVC040
     FM231000 16010KT P6SM VCSH SCT028 OVC040
     FM240100 17010KT P6SM -RA BKN022 OVC035
     FM240300 18013G25KT P6SM -RA OVC012=


U.S. Dept. of Commerce
NOAA National Weather Service
1325 East West Highway
Silver Spring, MD 20910
E-mail: w-nws.webmaster@noaa.gov
Page last modified: May 16, 2007
NATIONAL WEATHER SERVICE: for Safety, for Work, for Fun - FOR LIFE